sensor_id;sensor_type;location;lat;lon;timestamp;temperature;humidity
14142;DHT22;7151;52.246;4.820;2024-01-27T00:00:14;9.70;82.60
14142;DHT22;7151;52.246;4.820;2024-01-27T00:02:43;9.60;82.50
14142;DHT22;7151;52.246;4.820;2024-01-27T00:05:09;9.60;82.60
14142;DHT22;7151;52.246;4.820;2024-01-27T00:07:34;9.60;82.50
14142;DHT22;7151;52.246;4.820;2024-01-27T00:10:01;9.60;82.60
14142;DHT22;7151;52.246;4.820;2024-01-27T00:12:27;9.50;82.60
14142;DHT22;7151;52.246;4.820;2024-01-27T00:14:52;9.50;82.60
14142;DHT22;7151;52.246;4.820;2024-01-27T00:17:18;9.70;82.80
14142;DHT22;7151;52.246;4.820;2024-01-27T00:19:49;9.50;82.60
14142;DHT22;7151;52.246;4.820;2024-01-27T00:22:15;9.50;82.60
14142;DHT22;7151;52.246;4.820;2024-01-27T00:24:42;9.40;82.50
14142;DHT22;7151;52.246;4.820;2024-01-27T00:27:08;9.40;82.50
14142;DHT22;7151;52.246;4.820;2024-01-27T00:29:34;9.40;82.50
14142;DHT22;7151;52.246;4.820;2024-01-27T00:32:00;9.40;82.50
14142;DHT22;7151;52.246;4.820;2024-01-27T00:34:25;9.30;82.50
14142;DHT22;7151;52.246;4.820;2024-01-27T00:36:51;9.30;82.40
14142;DHT22;7151;52.246;4.820;2024-01-27T00:39:18;9.30;82.50
14142;DHT22;7151;52.246;4.820;2024-01-27T00:41:44;9.20;82.50
14142;DHT22;7151;52.246;4.820;2024-01-27T00:44:10;9.20;82.50
14142;DHT22;7151;52.246;4.820;2024-01-27T00:46:37;9.20;82.50
14142;DHT22;7151;52.246;4.820;2024-01-27T00:49:03;9.20;82.60
14142;DHT22;7151;52.246;4.820;2024-01-27T00:51:28;9.10;82.60
14142;DHT22;7151;52.246;4.820;2024-01-27T00:53:54;9.20;82.80
14142;DHT22;7151;52.246;4.820;2024-01-27T00:56:20;9.20;83.60
14142;DHT22;7151;52.246;4.820;2024-01-27T00:58:45;9.20;83.00
14142;DHT22;7151;52.246;4.820;2024-01-27T01:01:11;9.20;82.90
14142;DHT22;7151;52.246;4.820;2024-01-27T01:03:37;9.20;82.80
14142;DHT22;7151;52.246;4.820;2024-01-27T01:06:03;9.00;82.70
14142;DHT22;7151;52.246;4.820;2024-01-27T01:08:29;9.10;82.80
14142;DHT22;7151;52.246;4.820;2024-01-27T01:10:54;9.10;82.80
14142;DHT22;7151;52.246;4.820;2024-01-27T01:13:20;9.10;82.90
14142;DHT22;7151;52.246;4.820;2024-01-27T01:15:46;9.10;82.90
14142;DHT22;7151;52.246;4.820;2024-01-27T01:18:12;9.10;83.10
14142;DHT22;7151;52.246;4.820;2024-01-27T01:20:37;9.00;83.10
14142;DHT22;7151;52.246;4.820;2024-01-27T01:23:03;9.10;83.20
14142;DHT22;7151;52.246;4.820;2024-01-27T01:25:29;9.10;83.20
14142;DHT22;7151;52.246;4.820;2024-01-27T01:27:54;9.00;83.10
14142;DHT22;7151;52.246;4.820;2024-01-27T01:30:20;9.00;83.20
14142;DHT22;7151;52.246;4.820;2024-01-27T01:32:46;9.00;83.10
14142;DHT22;7151;52.246;4.820;2024-01-27T01:35:11;9.00;83.10
14142;DHT22;7151;52.246;4.820;2024-01-27T01:37:37;9.00;83.10
14142;DHT22;7151;52.246;4.820;2024-01-27T01:40:03;9.00;83.00
14142;DHT22;7151;52.246;4.820;2024-01-27T01:42:29;9.00;83.10
14142;DHT22;7151;52.246;4.820;2024-01-27T01:44:55;9.00;83.10
14142;DHT22;7151;52.246;4.820;2024-01-27T01:47:21;8.90;83.00
14142;DHT22;7151;52.246;4.820;2024-01-27T01:49:48;8.90;83.00
14142;DHT22;7151;52.246;4.820;2024-01-27T01:52:14;8.90;83.10
14142;DHT22;7151;52.246;4.820;2024-01-27T01:54:50;8.90;83.30
14142;DHT22;7151;52.246;4.820;2024-01-27T01:57:16;8.90;83.40
14142;DHT22;7151;52.246;4.820;2024-01-27T01:59:41;8.90;83.40
14142;DHT22;7151;52.246;4.820;2024-01-27T02:02:13;8.90;84.00
14142;DHT22;7151;52.246;4.820;2024-01-27T02:04:42;8.90;83.30
14142;DHT22;7151;52.246;4.820;2024-01-27T02:07:09;8.90;83.20
14142;DHT22;7151;52.246;4.820;2024-01-27T02:09:34;8.90;83.20
14142;DHT22;7151;52.246;4.820;2024-01-27T02:12:01;8.80;83.10
14142;DHT22;7151;52.246;4.820;2024-01-27T02:14:26;8.80;83.10
14142;DHT22;7151;52.246;4.820;2024-01-27T02:16:53;8.80;83.20
14142;DHT22;7151;52.246;4.820;2024-01-27T02:19:19;8.80;83.30
14142;DHT22;7151;52.246;4.820;2024-01-27T02:21:44;8.80;83.30
14142;DHT22;7151;52.246;4.820;2024-01-27T02:24:13;8.80;83.30
14142;DHT22;7151;52.246;4.820;2024-01-27T02:26:39;8.70;83.20
14142;DHT22;7151;52.246;4.820;2024-01-27T02:29:04;8.60;83.10
14142;DHT22;7151;52.246;4.820;2024-01-27T02:31:30;8.70;83.20
14142;DHT22;7151;52.246;4.820;2024-01-27T02:33:56;8.70;83.20
14142;DHT22;7151;52.246;4.820;2024-01-27T02:36:21;8.70;83.30
14142;DHT22;7151;52.246;4.820;2024-01-27T02:38:47;8.70;83.30
14142;DHT22;7151;52.246;4.820;2024-01-27T02:41:12;8.60;83.40
14142;DHT22;7151;52.246;4.820;2024-01-27T02:43:38;8.60;83.50
14142;DHT22;7151;52.246;4.820;2024-01-27T02:46:12;8.70;83.50
14142;DHT22;7151;52.246;4.820;2024-01-27T02:48:44;8.60;83.40
14142;DHT22;7151;52.246;4.820;2024-01-27T02:51:13;8.60;83.40
14142;DHT22;7151;52.246;4.820;2024-01-27T02:53:44;8.80;84.30
14142;DHT22;7151;52.246;4.820;2024-01-27T02:56:09;8.60;83.40
14142;DHT22;7151;52.246;4.820;2024-01-27T02:58:35;8.60;83.40
14142;DHT22;7151;52.246;4.820;2024-01-27T03:01:00;8.60;83.40
14142;DHT22;7151;52.246;4.820;2024-01-27T03:03:26;8.50;83.30
14142;DHT22;7151;52.246;4.820;2024-01-27T03:05:51;8.50;83.40
14142;DHT22;7151;52.246;4.820;2024-01-27T03:08:17;8.50;83.40
14142;DHT22;7151;52.246;4.820;2024-01-27T03:10:43;8.50;83.30
14142;DHT22;7151;52.246;4.820;2024-01-27T03:13:08;8.50;83.30
14142;DHT22;7151;52.246;4.820;2024-01-27T03:15:34;8.40;83.40
14142;DHT22;7151;52.246;4.820;2024-01-27T03:18:00;8.40;83.50
14142;DHT22;7151;52.246;4.820;2024-01-27T03:20:25;8.40;83.60
14142;DHT22;7151;52.246;4.820;2024-01-27T03:22:51;8.40;83.70
14142;DHT22;7151;52.246;4.820;2024-01-27T03:25:16;8.40;83.70
14142;DHT22;7151;52.246;4.820;2024-01-27T03:27:42;8.40;83.90
14142;DHT22;7151;52.246;4.820;2024-01-27T03:30:08;8.40;83.90
14142;DHT22;7151;52.246;4.820;2024-01-27T03:32:35;8.40;83.90
14142;DHT22;7151;52.246;4.820;2024-01-27T03:35:00;8.40;83.90
14142;DHT22;7151;52.246;4.820;2024-01-27T03:37:26;8.40;83.80
14142;DHT22;7151;52.246;4.820;2024-01-27T03:39:52;8.40;83.70
14142;DHT22;7151;52.246;4.820;2024-01-27T03:42:18;8.30;84.40
14142;DHT22;7151;52.246;4.820;2024-01-27T03:44:43;8.40;83.90
14142;DHT22;7151;52.246;4.820;2024-01-27T03:47:09;8.30;83.90
14142;DHT22;7151;52.246;4.820;2024-01-27T03:49:35;8.30;83.90
14142;DHT22;7151;52.246;4.820;2024-01-27T03:52:00;8.30;83.80
14142;DHT22;7151;52.246;4.820;2024-01-27T03:54:26;8.30;83.70
14142;DHT22;7151;52.246;4.820;2024-01-27T03:57:27;8.30;83.70
14142;DHT22;7151;52.246;4.820;2024-01-27T03:59:53;8.30;83.70
14142;DHT22;7151;52.246;4.820;2024-01-27T04:02:18;8.20;83.50
14142;DHT22;7151;52.246;4.820;2024-01-27T04:04:44;8.20;83.50
14142;DHT22;7151;52.246;4.820;2024-01-27T04:07:09;8.20;84.30
14142;DHT22;7151;52.246;4.820;2024-01-27T04:09:35;8.30;83.70
14142;DHT22;7151;52.246;4.820;2024-01-27T04:12:00;8.20;83.70
14142;DHT22;7151;52.246;4.820;2024-01-27T04:14:26;8.20;83.70
14142;DHT22;7151;52.246;4.820;2024-01-27T04:16:52;8.10;83.70
14142;DHT22;7151;52.246;4.820;2024-01-27T04:19:18;8.10;83.70
14142;DHT22;7151;52.246;4.820;2024-01-27T04:21:43;8.10;83.70
14142;DHT22;7151;52.246;4.820;2024-01-27T04:24:09;8.10;83.80
14142;DHT22;7151;52.246;4.820;2024-01-27T04:26:35;8.10;84.00
14142;DHT22;7151;52.246;4.820;2024-01-27T04:29:00;8.10;84.00
14142;DHT22;7151;52.246;4.820;2024-01-27T04:31:26;8.10;84.00
14142;DHT22;7151;52.246;4.820;2024-01-27T04:33:51;8.10;84.00
14142;DHT22;7151;52.246;4.820;2024-01-27T04:36:30;8.10;84.10
14142;DHT22;7151;52.246;4.820;2024-01-27T04:38:55;8.10;84.00
14142;DHT22;7151;52.246;4.820;2024-01-27T04:41:21;8.10;84.00
14142;DHT22;7151;52.246;4.820;2024-01-27T04:43:47;8.00;83.90
14142;DHT22;7151;52.246;4.820;2024-01-27T04:46:13;8.00;84.00
14142;DHT22;7151;52.246;4.820;2024-01-27T04:48:38;8.00;84.10
14142;DHT22;7151;52.246;4.820;2024-01-27T04:51:04;8.20;84.30
14142;DHT22;7151;52.246;4.820;2024-01-27T04:53:29;8.00;84.30
14142;DHT22;7151;52.246;4.820;2024-01-27T04:55:55;8.00;84.40
14142;DHT22;7151;52.246;4.820;2024-01-27T04:58:20;8.00;84.40
14142;DHT22;7151;52.246;4.820;2024-01-27T05:00:46;8.00;84.40
14142;DHT22;7151;52.246;4.820;2024-01-27T05:03:12;8.00;84.50
14142;DHT22;7151;52.246;4.820;2024-01-27T05:05:42;8.10;84.60
14142;DHT22;7151;52.246;4.820;2024-01-27T05:08:09;8.00;84.60
14142;DHT22;7151;52.246;4.820;2024-01-27T05:10:38;8.10;84.60
14142;DHT22;7151;52.246;4.820;2024-01-27T05:13:04;8.00;84.60
14142;DHT22;7151;52.246;4.820;2024-01-27T05:15:29;8.10;84.60
14142;DHT22;7151;52.246;4.820;2024-01-27T05:17:55;8.00;84.60
14142;DHT22;7151;52.246;4.820;2024-01-27T05:20:21;8.00;84.70
14142;DHT22;7151;52.246;4.820;2024-01-27T05:22:46;8.00;84.70
14142;DHT22;7151;52.246;4.820;2024-01-27T05:25:12;8.00;84.70
14142;DHT22;7151;52.246;4.820;2024-01-27T05:27:38;8.00;84.70
14142;DHT22;7151;52.246;4.820;2024-01-27T05:30:09;7.90;84.70
14142;DHT22;7151;52.246;4.820;2024-01-27T05:32:35;7.90;84.70
14142;DHT22;7151;52.246;4.820;2024-01-27T05:35:00;7.90;84.80
14142;DHT22;7151;52.246;4.820;2024-01-27T05:37:26;7.90;84.90
14142;DHT22;7151;52.246;4.820;2024-01-27T05:39:52;7.90;84.90
14142;DHT22;7151;52.246;4.820;2024-01-27T05:42:18;7.90;85.00
14142;DHT22;7151;52.246;4.820;2024-01-27T05:44:43;7.90;85.00
14142;DHT22;7151;52.246;4.820;2024-01-27T05:47:10;7.90;85.10
14142;DHT22;7151;52.246;4.820;2024-01-27T05:49:36;8.00;85.20
14142;DHT22;7151;52.246;4.820;2024-01-27T05:52:02;7.90;85.10
14142;DHT22;7151;52.246;4.820;2024-01-27T05:54:28;7.90;85.20
14142;DHT22;7151;52.246;4.820;2024-01-27T05:56:54;7.90;85.20
14142;DHT22;7151;52.246;4.820;2024-01-27T05:59:19;7.90;85.20
14142;DHT22;7151;52.246;4.820;2024-01-27T06:01:45;7.90;85.20
14142;DHT22;7151;52.246;4.820;2024-01-27T06:04:11;7.90;85.20
14142;DHT22;7151;52.246;4.820;2024-01-27T06:06:39;7.90;85.20
14142;DHT22;7151;52.246;4.820;2024-01-27T06:09:09;7.90;85.20
14142;DHT22;7151;52.246;4.820;2024-01-27T06:11:39;7.80;85.20
14142;DHT22;7151;52.246;4.820;2024-01-27T06:14:04;7.90;85.30
14142;DHT22;7151;52.246;4.820;2024-01-27T06:16:30;7.80;85.30
14142;DHT22;7151;52.246;4.820;2024-01-27T06:18:56;7.80;85.30
14142;DHT22;7151;52.246;4.820;2024-01-27T06:21:21;7.80;85.30
14142;DHT22;7151;52.246;4.820;2024-01-27T06:23:47;7.80;85.30
14142;DHT22;7151;52.246;4.820;2024-01-27T06:26:13;7.80;85.30
14142;DHT22;7151;52.246;4.820;2024-01-27T06:28:39;7.80;85.30
14142;DHT22;7151;52.246;4.820;2024-01-27T06:31:08;7.80;85.30
14142;DHT22;7151;52.246;4.820;2024-01-27T06:33:36;7.80;85.30
14142;DHT22;7151;52.246;4.820;2024-01-27T06:36:02;7.80;85.30
14142;DHT22;7151;52.246;4.820;2024-01-27T06:38:28;7.80;85.40
14142;DHT22;7151;52.246;4.820;2024-01-27T06:40:54;7.70;85.30
14142;DHT22;7151;52.246;4.820;2024-01-27T06:43:19;7.80;85.30
14142;DHT22;7151;52.246;4.820;2024-01-27T06:45:45;7.70;85.30
14142;DHT22;7151;52.246;4.820;2024-01-27T06:48:11;7.70;85.30
14142;DHT22;7151;52.246;4.820;2024-01-27T06:50:36;7.70;85.30
14142;DHT22;7151;52.246;4.820;2024-01-27T06:53:05;7.70;85.40
14142;DHT22;7151;52.246;4.820;2024-01-27T06:55:31;7.70;85.40
14142;DHT22;7151;52.246;4.820;2024-01-27T06:57:56;7.70;85.30
14142;DHT22;7151;52.246;4.820;2024-01-27T07:00:22;7.70;85.30
14142;DHT22;7151;52.246;4.820;2024-01-27T07:02:48;7.70;85.20
14142;DHT22;7151;52.246;4.820;2024-01-27T07:05:14;7.70;85.10
14142;DHT22;7151;52.246;4.820;2024-01-27T07:07:42;7.70;85.10
14142;DHT22;7151;52.246;4.820;2024-01-27T07:10:08;7.60;85.10
14142;DHT22;7151;52.246;4.820;2024-01-27T07:12:43;7.60;85.00
14142;DHT22;7151;52.246;4.820;2024-01-27T07:15:11;7.60;85.10
14142;DHT22;7151;52.246;4.820;2024-01-27T07:17:36;7.60;85.00
14142;DHT22;7151;52.246;4.820;2024-01-27T07:20:02;7.60;85.00
14142;DHT22;7151;52.246;4.820;2024-01-27T07:22:28;7.60;85.10
14142;DHT22;7151;52.246;4.820;2024-01-27T07:24:57;7.60;85.30
14142;DHT22;7151;52.246;4.820;2024-01-27T07:27:22;7.60;85.50
14142;DHT22;7151;52.246;4.820;2024-01-27T07:29:49;7.60;85.70
14142;DHT22;7151;52.246;4.820;2024-01-27T07:32:14;7.60;85.80
14142;DHT22;7151;52.246;4.820;2024-01-27T07:34:41;7.60;85.90
14142;DHT22;7151;52.246;4.820;2024-01-27T07:37:07;7.60;86.00
14142;DHT22;7151;52.246;4.820;2024-01-27T07:39:36;7.70;86.10
14142;DHT22;7151;52.246;4.820;2024-01-27T07:42:02;7.70;86.20
14142;DHT22;7151;52.246;4.820;2024-01-27T07:44:27;7.70;86.20
14142;DHT22;7151;52.246;4.820;2024-01-27T07:46:53;7.70;86.20
14142;DHT22;7151;52.246;4.820;2024-01-27T07:49:19;7.70;86.40
14142;DHT22;7151;52.246;4.820;2024-01-27T07:51:45;7.80;86.50
14142;DHT22;7151;52.246;4.820;2024-01-27T07:54:11;7.80;86.50
14142;DHT22;7151;52.246;4.820;2024-01-27T07:56:37;7.80;86.50
14142;DHT22;7151;52.246;4.820;2024-01-27T07:59:03;7.80;86.50
14142;DHT22;7151;52.246;4.820;2024-01-27T08:01:29;7.80;86.60
14142;DHT22;7151;52.246;4.820;2024-01-27T08:03:54;7.80;86.60
14142;DHT22;7151;52.246;4.820;2024-01-27T08:06:28;7.90;86.70
14142;DHT22;7151;52.246;4.820;2024-01-27T08:08:53;7.90;86.70
14142;DHT22;7151;52.246;4.820;2024-01-27T08:11:19;7.90;86.70
14142;DHT22;7151;52.246;4.820;2024-01-27T08:13:45;7.90;86.70
14142;DHT22;7151;52.246;4.820;2024-01-27T08:16:11;7.90;86.70
14142;DHT22;7151;52.246;4.820;2024-01-27T08:18:41;7.90;86.70
14142;DHT22;7151;52.246;4.820;2024-01-27T08:21:09;7.90;86.80
14142;DHT22;7151;52.246;4.820;2024-01-27T08:23:38;7.90;86.80
14142;DHT22;7151;52.246;4.820;2024-01-27T08:26:04;7.90;86.80
14142;DHT22;7151;52.246;4.820;2024-01-27T08:28:29;7.90;86.80
14142;DHT22;7151;52.246;4.820;2024-01-27T08:30:55;7.90;86.80
14142;DHT22;7151;52.246;4.820;2024-01-27T08:33:21;7.90;86.80
14142;DHT22;7151;52.246;4.820;2024-01-27T08:35:47;7.90;86.80
14142;DHT22;7151;52.246;4.820;2024-01-27T08:38:15;7.90;86.80
14142;DHT22;7151;52.246;4.820;2024-01-27T08:40:40;7.90;86.80
14142;DHT22;7151;52.246;4.820;2024-01-27T08:43:06;7.90;86.90
14142;DHT22;7151;52.246;4.820;2024-01-27T08:45:32;7.80;86.90
14142;DHT22;7151;52.246;4.820;2024-01-27T08:47:58;7.90;87.00
14142;DHT22;7151;52.246;4.820;2024-01-27T08:50:24;7.80;87.00
14142;DHT22;7151;52.246;4.820;2024-01-27T08:52:50;7.80;87.00
14142;DHT22;7151;52.246;4.820;2024-01-27T08:55:15;7.80;87.10
14142;DHT22;7151;52.246;4.820;2024-01-27T08:57:45;7.90;87.30
14142;DHT22;7151;52.246;4.820;2024-01-27T09:00:12;7.80;87.20
14142;DHT22;7151;52.246;4.820;2024-01-27T09:02:38;7.90;87.30
14142;DHT22;7151;52.246;4.820;2024-01-27T09:05:04;7.80;87.30
14142;DHT22;7151;52.246;4.820;2024-01-27T09:07:31;7.90;87.40
14142;DHT22;7151;52.246;4.820;2024-01-27T09:10:03;7.90;87.50
14142;DHT22;7151;52.246;4.820;2024-01-27T09:12:28;7.90;87.60
14142;DHT22;7151;52.246;4.820;2024-01-27T09:14:54;7.90;87.70
14142;DHT22;7151;52.246;4.820;2024-01-27T09:17:20;7.90;87.80
14142;DHT22;7151;52.246;4.820;2024-01-27T09:19:46;7.90;87.80
14142;DHT22;7151;52.246;4.820;2024-01-27T09:22:11;7.90;87.90
14142;DHT22;7151;52.246;4.820;2024-01-27T09:24:37;7.90;88.10
14142;DHT22;7151;52.246;4.820;2024-01-27T09:27:06;8.00;88.20
14142;DHT22;7151;52.246;4.820;2024-01-27T09:29:32;8.00;88.30
14142;DHT22;7151;52.246;4.820;2024-01-27T09:31:57;8.10;88.50
14142;DHT22;7151;52.246;4.820;2024-01-27T09:34:23;8.10;88.50
14142;DHT22;7151;52.246;4.820;2024-01-27T09:36:49;8.10;88.60
14142;DHT22;7151;52.246;4.820;2024-01-27T09:39:14;8.20;88.70
14142;DHT22;7151;52.246;4.820;2024-01-27T09:41:40;8.20;88.80
14142;DHT22;7151;52.246;4.820;2024-01-27T09:44:06;8.30;88.90
14142;DHT22;7151;52.246;4.820;2024-01-27T09:46:32;8.30;88.90
14142;DHT22;7151;52.246;4.820;2024-01-27T09:48:58;8.40;89.00
14142;DHT22;7151;52.246;4.820;2024-01-27T09:51:27;8.40;89.90
14142;DHT22;7151;52.246;4.820;2024-01-27T09:53:52;8.50;89.30
14142;DHT22;7151;52.246;4.820;2024-01-27T09:56:19;8.50;89.40
14142;DHT22;7151;52.246;4.820;2024-01-27T09:58:46;8.60;89.50
14142;DHT22;7151;52.246;4.820;2024-01-27T10:01:12;8.60;89.60
14142;DHT22;7151;52.246;4.820;2024-01-27T10:03:43;8.70;89.70
14142;DHT22;7151;52.246;4.820;2024-01-27T10:06:09;8.70;89.80
14142;DHT22;7151;52.246;4.820;2024-01-27T10:08:35;8.80;90.00
14142;DHT22;7151;52.246;4.820;2024-01-27T10:11:09;8.90;90.00
14142;DHT22;7151;52.246;4.820;2024-01-27T10:14:06;8.90;90.10
14142;DHT22;7151;52.246;4.820;2024-01-27T10:16:44;9.00;90.00
14142;DHT22;7151;52.246;4.820;2024-01-27T10:19:17;9.00;90.00
14142;DHT22;7151;52.246;4.820;2024-01-27T10:21:47;9.10;90.00
14142;DHT22;7151;52.246;4.820;2024-01-27T10:24:16;9.10;90.00
14142;DHT22;7151;52.246;4.820;2024-01-27T10:26:42;9.20;90.00
14142;DHT22;7151;52.246;4.820;2024-01-27T10:29:08;9.20;90.00
14142;DHT22;7151;52.246;4.820;2024-01-27T10:31:34;9.30;90.40
14142;DHT22;7151;52.246;4.820;2024-01-27T10:34:08;9.30;90.10
14142;DHT22;7151;52.246;4.820;2024-01-27T10:36:41;9.40;90.10
14142;DHT22;7151;52.246;4.820;2024-01-27T10:39:18;9.60;90.20
14142;DHT22;7151;52.246;4.820;2024-01-27T10:41:46;9.50;90.10
14142;DHT22;7151;52.246;4.820;2024-01-27T10:44:16;9.50;90.10
14142;DHT22;7151;52.246;4.820;2024-01-27T10:46:47;9.60;90.10
14142;DHT22;7151;52.246;4.820;2024-01-27T10:49:14;9.70;90.10
14142;DHT22;7151;52.246;4.820;2024-01-27T10:51:54;9.70;90.10
14142;DHT22;7151;52.246;4.820;2024-01-27T10:54:26;9.70;90.10
14142;DHT22;7151;52.246;4.820;2024-01-27T10:56:54;9.80;90.10
14142;DHT22;7151;52.246;4.820;2024-01-27T10:59:21;9.80;90.10
14142;DHT22;7151;52.246;4.820;2024-01-27T11:01:49;9.90;90.10
14142;DHT22;7151;52.246;4.820;2024-01-27T11:04:19;9.90;90.10
14142;DHT22;7151;52.246;4.820;2024-01-27T11:06:47;10.00;90.10
14142;DHT22;7151;52.246;4.820;2024-01-27T11:09:14;10.00;90.00
14142;DHT22;7151;52.246;4.820;2024-01-27T11:11:42;10.10;90.00
14142;DHT22;7151;52.246;4.820;2024-01-27T11:14:09;10.10;90.00
14142;DHT22;7151;52.246;4.820;2024-01-27T11:16:37;10.20;90.00
14142;DHT22;7151;52.246;4.820;2024-01-27T11:19:12;10.20;89.90
14142;DHT22;7151;52.246;4.820;2024-01-27T11:21:38;10.30;89.90
14142;DHT22;7151;52.246;4.820;2024-01-27T11:24:16;10.30;89.80
14142;DHT22;7151;52.246;4.820;2024-01-27T11:26:44;10.40;89.70
14142;DHT22;7151;52.246;4.820;2024-01-27T11:29:10;10.40;89.60
14142;DHT22;7151;52.246;4.820;2024-01-27T11:31:48;10.50;89.60
14142;DHT22;7151;52.246;4.820;2024-01-27T11:34:14;10.50;89.50
14142;DHT22;7151;52.246;4.820;2024-01-27T11:36:43;10.40;89.30
14142;DHT22;7151;52.246;4.820;2024-01-27T11:39:29;10.60;89.30
14142;DHT22;7151;52.246;4.820;2024-01-27T11:42:08;10.60;89.00
14142;DHT22;7151;52.246;4.820;2024-01-27T11:44:36;10.70;89.00
14142;DHT22;7151;52.246;4.820;2024-01-27T11:47:01;10.70;88.80
14142;DHT22;7151;52.246;4.820;2024-01-27T11:49:28;10.80;88.80
14142;DHT22;7151;52.246;4.820;2024-01-27T11:51:54;10.80;88.60
14142;DHT22;7151;52.246;4.820;2024-01-27T11:54:19;10.80;88.50
14142;DHT22;7151;52.246;4.820;2024-01-27T11:56:45;10.90;88.30
14142;DHT22;7151;52.246;4.820;2024-01-27T11:59:12;10.90;88.20
14142;DHT22;7151;52.246;4.820;2024-01-27T12:01:37;10.90;88.20
14142;DHT22;7151;52.246;4.820;2024-01-27T12:04:07;11.00;88.10
14142;DHT22;7151;52.246;4.820;2024-01-27T12:06:34;11.00;88.00
14142;DHT22;7151;52.246;4.820;2024-01-27T12:09:00;11.10;88.00
14142;DHT22;7151;52.246;4.820;2024-01-27T12:11:26;11.10;87.80
14142;DHT22;7151;52.246;4.820;2024-01-27T12:13:52;11.10;87.60
14142;DHT22;7151;52.246;4.820;2024-01-27T12:16:18;11.20;87.50
14142;DHT22;7151;52.246;4.820;2024-01-27T12:18:45;11.30;87.50
14142;DHT22;7151;52.246;4.820;2024-01-27T12:21:13;11.30;87.30
14142;DHT22;7151;52.246;4.820;2024-01-27T12:23:51;11.30;87.20
14142;DHT22;7151;52.246;4.820;2024-01-27T12:26:16;11.40;86.90
14142;DHT22;7151;52.246;4.820;2024-01-27T12:28:45;11.40;86.80
14142;DHT22;7151;52.246;4.820;2024-01-27T12:31:12;11.40;86.50
14142;DHT22;7151;52.246;4.820;2024-01-27T12:33:38;11.50;86.50
14142;DHT22;7151;52.246;4.820;2024-01-27T12:36:07;11.50;86.30
14142;DHT22;7151;52.246;4.820;2024-01-27T12:38:36;11.50;86.30
14142;DHT22;7151;52.246;4.820;2024-01-27T12:41:02;11.60;86.10
14142;DHT22;7151;52.246;4.820;2024-01-27T12:43:27;11.60;86.10
14142;DHT22;7151;52.246;4.820;2024-01-27T12:45:53;11.60;85.90
14142;DHT22;7151;52.246;4.820;2024-01-27T12:48:19;11.60;85.90
14142;DHT22;7151;52.246;4.820;2024-01-27T12:50:44;11.80;86.00
14142;DHT22;7151;52.246;4.820;2024-01-27T12:53:13;11.60;85.90
14142;DHT22;7151;52.246;4.820;2024-01-27T12:55:38;11.70;85.60
14142;DHT22;7151;52.246;4.820;2024-01-27T12:58:05;11.70;85.70
14142;DHT22;7151;52.246;4.820;2024-01-27T13:00:30;11.70;85.70
14142;DHT22;7151;52.246;4.820;2024-01-27T13:02:56;11.80;85.60
14142;DHT22;7151;52.246;4.820;2024-01-27T13:05:21;11.80;85.50
14142;DHT22;7151;52.246;4.820;2024-01-27T13:07:47;11.80;85.40
14142;DHT22;7151;52.246;4.820;2024-01-27T13:10:14;11.70;85.20
14142;DHT22;7151;52.246;4.820;2024-01-27T13:12:39;11.80;85.20
14142;DHT22;7151;52.246;4.820;2024-01-27T13:15:08;11.70;85.20
14142;DHT22;7151;52.246;4.820;2024-01-27T13:17:36;11.70;85.20
14142;DHT22;7151;52.246;4.820;2024-01-27T13:20:02;11.70;85.20
14142;DHT22;7151;52.246;4.820;2024-01-27T13:22:28;11.70;85.20
14142;DHT22;7151;52.246;4.820;2024-01-27T13:24:53;11.70;85.20
14142;DHT22;7151;52.246;4.820;2024-01-27T13:27:20;11.70;85.30
14142;DHT22;7151;52.246;4.820;2024-01-27T13:29:45;11.70;85.20
14142;DHT22;7151;52.246;4.820;2024-01-27T13:32:11;11.60;85.20
14142;DHT22;7151;52.246;4.820;2024-01-27T13:34:37;11.70;85.20
14142;DHT22;7151;52.246;4.820;2024-01-27T13:37:04;11.70;85.20
14142;DHT22;7151;52.246;4.820;2024-01-27T13:39:29;11.80;85.30
14142;DHT22;7151;52.246;4.820;2024-01-27T13:41:55;11.70;85.30
14142;DHT22;7151;52.246;4.820;2024-01-27T13:44:21;11.70;86.10
14142;DHT22;7151;52.246;4.820;2024-01-27T13:46:46;11.70;85.30
14142;DHT22;7151;52.246;4.820;2024-01-27T13:49:13;11.70;85.30
14142;DHT22;7151;52.246;4.820;2024-01-27T13:51:38;11.70;85.30
14142;DHT22;7151;52.246;4.820;2024-01-27T13:54:04;11.70;85.30
14142;DHT22;7151;52.246;4.820;2024-01-27T13:56:36;11.80;85.40
14142;DHT22;7151;52.246;4.820;2024-01-27T13:59:02;11.80;85.30
14142;DHT22;7151;52.246;4.820;2024-01-27T14:01:29;11.80;85.30
14142;DHT22;7151;52.246;4.820;2024-01-27T14:03:55;11.80;85.30
14142;DHT22;7151;52.246;4.820;2024-01-27T14:06:20;11.90;85.30
14142;DHT22;7151;52.246;4.820;2024-01-27T14:08:46;11.80;85.40
14142;DHT22;7151;52.246;4.820;2024-01-27T14:11:12;11.80;85.40
14142;DHT22;7151;52.246;4.820;2024-01-27T14:13:37;11.80;85.30
14142;DHT22;7151;52.246;4.820;2024-01-27T14:16:03;11.80;85.40
14142;DHT22;7151;52.246;4.820;2024-01-27T14:18:29;11.70;85.30
14142;DHT22;7151;52.246;4.820;2024-01-27T14:20:56;11.80;85.30
14142;DHT22;7151;52.246;4.820;2024-01-27T14:23:22;11.80;85.20
14142;DHT22;7151;52.246;4.820;2024-01-27T14:25:48;11.80;85.20
14142;DHT22;7151;52.246;4.820;2024-01-27T14:28:14;11.90;85.20
14142;DHT22;7151;52.246;4.820;2024-01-27T14:30:43;11.70;85.10
14142;DHT22;7151;52.246;4.820;2024-01-27T14:33:10;11.80;85.20
14142;DHT22;7151;52.246;4.820;2024-01-27T14:35:36;11.80;85.30
14142;DHT22;7151;52.246;4.820;2024-01-27T14:38:02;11.90;85.30
14142;DHT22;7151;52.246;4.820;2024-01-27T14:40:28;11.80;85.30
14142;DHT22;7151;52.246;4.820;2024-01-27T14:42:53;11.80;86.00
14142;DHT22;7151;52.246;4.820;2024-01-27T14:45:19;11.80;85.40
14142;DHT22;7151;52.246;4.820;2024-01-27T14:47:45;11.80;86.10
14142;DHT22;7151;52.246;4.820;2024-01-27T14:50:11;11.80;85.40
14142;DHT22;7151;52.246;4.820;2024-01-27T14:52:36;11.80;85.40
14142;DHT22;7151;52.246;4.820;2024-01-27T14:55:02;11.80;85.30
14142;DHT22;7151;52.246;4.820;2024-01-27T14:57:28;11.80;85.20
14142;DHT22;7151;52.246;4.820;2024-01-27T14:59:54;11.80;85.20
14142;DHT22;7151;52.246;4.820;2024-01-27T15:02:22;11.80;85.20
14142;DHT22;7151;52.246;4.820;2024-01-27T15:04:50;11.80;85.10
14142;DHT22;7151;52.246;4.820;2024-01-27T15:07:16;11.80;85.70
14142;DHT22;7151;52.246;4.820;2024-01-27T15:09:43;11.80;84.90
14142;DHT22;7151;52.246;4.820;2024-01-27T15:12:17;11.80;84.90
14142;DHT22;7151;52.246;4.820;2024-01-27T15:14:43;11.80;84.90
14142;DHT22;7151;52.246;4.820;2024-01-27T15:17:09;11.80;84.90
14142;DHT22;7151;52.246;4.820;2024-01-27T15:19:35;11.80;85.00
14142;DHT22;7151;52.246;4.820;2024-01-27T15:22:01;11.70;84.90
14142;DHT22;7151;52.246;4.820;2024-01-27T15:24:26;11.70;85.00
14142;DHT22;7151;52.246;4.820;2024-01-27T15:26:58;11.70;84.90
14142;DHT22;7151;52.246;4.820;2024-01-27T15:29:27;11.70;84.90
14142;DHT22;7151;52.246;4.820;2024-01-27T15:31:53;11.70;84.90
14142;DHT22;7151;52.246;4.820;2024-01-27T15:34:18;11.70;84.90
14142;DHT22;7151;52.246;4.820;2024-01-27T15:36:44;11.70;84.90
14142;DHT22;7151;52.246;4.820;2024-01-27T15:39:12;11.70;84.90
14142;DHT22;7151;52.246;4.820;2024-01-27T15:41:43;11.70;84.90
14142;DHT22;7151;52.246;4.820;2024-01-27T15:44:09;11.60;84.80
14142;DHT22;7151;52.246;4.820;2024-01-27T15:46:35;11.60;84.80
14142;DHT22;7151;52.246;4.820;2024-01-27T15:49:00;11.60;84.80
14142;DHT22;7151;52.246;4.820;2024-01-27T15:51:26;11.60;84.80
14142;DHT22;7151;52.246;4.820;2024-01-27T15:53:51;11.60;84.80